createdAt,value
2017-10-14T00:04:05.956Z,72.61
2017-10-14T00:06:41.433Z,72.57
2017-10-14T00:09:16.667Z,72.33
2017-10-14T00:11:51.970Z,72.28
2017-10-14T00:14:29.039Z,72.47
2017-10-14T00:17:04.187Z,72.05
2017-10-14T00:19:38.889Z,71.93
2017-10-14T00:22:14.259Z,71.91
2017-10-14T00:24:50.452Z,72.27
2017-10-14T00:27:27.593Z,72.32
2017-10-14T00:30:03.212Z,72.22
2017-10-14T00:32:38.477Z,72.23
2017-10-14T00:35:14.298Z,72.27
2017-10-14T00:37:49.025Z,72.13
2017-10-14T00:40:25.086Z,72.44
2017-10-14T00:42:59.970Z,72.62
2017-10-14T00:45:34.857Z,72.60
2017-10-14T00:48:09.522Z,72.52
2017-10-14T00:50:45.231Z,72.73
2017-10-14T00:53:20.203Z,72.58
2017-10-14T00:55:57.666Z,72.19
2017-10-14T00:58:32.750Z,72.12
2017-10-14T01:01:07.675Z,72.14
2017-10-14T01:03:42.634Z,72.36
2017-10-14T01:06:17.599Z,72.22
2017-10-14T01:08:53.055Z,72.33
2017-10-14T01:11:27.649Z,72.15
2017-10-14T01:14:02.995Z,72.16
2017-10-14T01:16:37.728Z,72.00
2017-10-14T01:19:12.359Z,72.03
2017-10-14T01:21:47.389Z,71.92
2017-10-14T01:24:22.059Z,71.46
2017-10-14T01:26:56.924Z,71.60
2017-10-14T01:29:31.417Z,71.52
2017-10-14T01:32:06.607Z,71.51
2017-10-14T01:34:43.192Z,71.53
2017-10-14T01:37:17.978Z,71.55
2017-10-14T01:39:52.619Z,71.54
2017-10-14T01:42:27.603Z,71.34
2017-10-14T01:45:02.183Z,70.89
2017-10-14T01:47:39.782Z,70.74
2017-10-14T01:50:16.760Z,70.89
2017-10-14T01:52:51.764Z,70.68
2017-10-14T01:55:26.267Z,70.77
2017-10-14T01:58:01.138Z,70.77
2017-10-14T02:03:32.791Z,70.24
2017-10-14T02:06:07.811Z,70.30
2017-10-14T02:08:43.597Z,70.07
2017-10-14T02:11:18.822Z,69.73
2017-10-14T02:13:53.773Z,69.01
2017-10-14T02:16:28.465Z,68.67
2017-10-14T02:19:05.010Z,68.42
2017-10-14T02:21:40.296Z,67.94
2017-10-14T02:24:15.286Z,67.81
2017-10-14T02:26:50.320Z,67.85
2017-10-14T02:29:27.775Z,68.07
2017-10-14T02:32:02.485Z,68.31
2017-10-14T02:34:38.387Z,68.54
2017-10-14T02:37:13.385Z,68.98
2017-10-14T02:39:48.749Z,69.21
2017-10-14T02:42:23.922Z,69.81
2017-10-14T02:44:59.029Z,69.87
2017-10-14T02:47:33.894Z,69.88
2017-10-14T02:50:10.525Z,70.22
2017-10-14T02:52:45.978Z,70.11
2017-10-14T02:55:23.132Z,70.03
2017-10-14T02:57:57.598Z,70.78
2017-10-14T03:00:34.767Z,70.89
2017-10-14T03:03:10.027Z,70.89
2017-10-14T03:05:47.101Z,70.53
2017-10-14T03:08:22.298Z,70.29
2017-10-14T03:10:57.756Z,70.66
2017-10-14T03:13:32.544Z,70.62
2017-10-14T03:16:10.317Z,71.29
2017-10-14T03:18:44.970Z,71.17
2017-10-14T03:21:20.371Z,70.29
2017-10-14T03:23:55.617Z,70.15
2017-10-14T03:26:30.322Z,70.47
2017-10-14T03:29:06.067Z,70.37
2017-10-14T03:31:41.612Z,70.08
2017-10-14T03:34:16.896Z,69.89
2017-10-14T03:36:52.410Z,69.95
2017-10-14T03:39:26.855Z,70.32
2017-10-14T03:42:03.610Z,69.95
2017-10-14T03:44:38.074Z,69.57
2017-10-14T03:47:14.994Z,69.80
2017-10-14T03:49:50.924Z,70.32
2017-10-14T03:52:25.905Z,69.10
2017-10-14T03:55:00.990Z,68.74
2017-10-14T03:57:38.250Z,68.15
2017-10-14T04:00:18.724Z,68.41
2017-10-14T04:02:48.305Z,68.01
2017-10-14T04:05:22.980Z,67.54
2017-10-14T04:07:58.239Z,67.59
2017-10-14T04:10:32.897Z,67.04
2017-10-14T04:13:08.139Z,67.30
2017-10-14T04:15:43.543Z,67.07
2017-10-14T04:18:12.873Z,65.87
2017-10-14T04:20:39.697Z,65.68
2017-10-14T04:23:14.705Z,65.13
2017-10-14T04:25:49.772Z,64.88
2017-10-14T04:28:25.318Z,64.99
2017-10-14T04:30:58.139Z,64.91
2017-10-14T04:33:33.506Z,64.84
2017-10-14T04:36:08.265Z,64.73
2017-10-14T04:38:43.392Z,64.75
2017-10-14T04:41:18.046Z,63.95
2017-10-14T04:43:52.988Z,64.03
2017-10-14T04:46:28.283Z,62.96
2017-10-14T04:49:05.292Z,62.26
2017-10-14T04:51:40.439Z,61.36
2017-10-14T04:54:16.272Z,60.59
2017-10-14T04:56:51.037Z,59.09
2017-10-14T04:59:29.065Z,59.30
2017-10-14T05:02:03.868Z,59.03
2017-10-14T05:04:39.806Z,58.52
2017-10-14T05:07:15.081Z,58.51
2017-10-14T05:09:50.587Z,58.31
2017-10-14T05:12:25.818Z,59.32
2017-10-14T05:15:01.306Z,58.74
2017-10-14T05:17:35.949Z,57.26
2017-10-14T05:20:14.281Z,56.80
2017-10-14T05:22:47.105Z,57.60
2017-10-14T05:25:13.861Z,57.59
2017-10-14T05:27:48.639Z,57.31
2017-10-14T05:30:23.492Z,56.53
2017-10-14T05:32:58.569Z,55.94
2017-10-14T05:35:33.201Z,54.37
2017-10-14T05:38:08.680Z,54.45
2017-10-14T05:40:43.845Z,53.96
2017-10-14T05:43:18.983Z,53.86
2017-10-14T05:45:45.699Z,53.13
2017-10-14T05:48:12.567Z,53.79
2017-10-14T05:50:48.473Z,53.09
2017-10-14T05:53:23.472Z,53.31
2017-10-14T05:56:01.152Z,53.01
2017-10-14T05:58:36.193Z,52.90
2017-10-14T06:01:03.946Z,52.44
2017-10-14T06:03:38.729Z,52.31
2017-10-14T06:06:14.606Z,51.52
2017-10-14T06:08:49.929Z,50.94
2017-10-14T06:11:25.696Z,51.50
2017-10-14T06:14:00.496Z,51.79
2017-10-14T06:16:35.452Z,51.47
2017-10-14T06:19:10.508Z,50.84
2017-10-14T06:21:47.897Z,50.70
2017-10-14T06:24:22.586Z,50.47
2017-10-14T06:26:58.355Z,49.37
2017-10-14T06:29:33.357Z,48.07
2017-10-14T06:32:09.664Z,47.66
2017-10-14T06:34:44.542Z,46.57
2017-10-14T06:37:21.246Z,47.47
2017-10-14T06:39:56.254Z,47.86
2017-10-14T06:42:31.889Z,47.82
2017-10-14T06:45:06.716Z,47.40
2017-10-14T06:47:41.344Z,47.27
2017-10-14T06:50:16.319Z,47.23
2017-10-14T06:52:52.733Z,46.12
2017-10-14T06:55:27.553Z,45.90
2017-10-14T06:58:03.513Z,45.54
2017-10-14T07:00:38.339Z,44.10
2017-10-14T07:03:13.466Z,44.03
2017-10-14T07:05:49.233Z,44.05
2017-10-14T07:08:25.399Z,42.98
2017-10-14T07:11:00.185Z,43.13
2017-10-14T07:13:34.829Z,42.69
2017-10-14T07:16:09.377Z,42.76
2017-10-14T07:18:43.952Z,43.23
2017-10-14T07:21:18.538Z,43.39
2017-10-14T07:23:54.289Z,43.62
2017-10-14T07:26:29.998Z,44.09
2017-10-14T07:29:07.134Z,43.92
2017-10-14T07:31:42.221Z,43.18
2017-10-14T07:34:17.897Z,44.15
2017-10-14T07:36:52.632Z,44.32
2017-10-14T07:39:27.387Z,43.66
2017-10-14T07:42:01.992Z,44.41
2017-10-14T07:44:36.907Z,43.09
2017-10-14T07:47:11.952Z,44.05
2017-10-14T07:49:47.679Z,44.43
2017-10-14T07:52:22.634Z,44.54
2017-10-14T07:54:58.069Z,44.03
2017-10-14T07:57:32.786Z,43.41
2017-10-14T08:00:08.075Z,44.00
2017-10-14T08:02:43.217Z,43.96
2017-10-14T08:05:18.082Z,44.38
2017-10-14T08:07:52.845Z,43.87
2017-10-14T08:10:29.700Z,42.99
2017-10-14T08:13:04.341Z,43.49
2017-10-14T08:15:43.468Z,43.23
2017-10-14T08:18:18.908Z,43.18
2017-10-14T08:20:53.798Z,44.08
2017-10-14T08:23:28.297Z,43.87
2017-10-14T08:26:04.451Z,42.85
2017-10-14T08:28:39.466Z,42.15
2017-10-14T08:31:16.372Z,41.68
2017-10-14T08:33:51.455Z,41.67
2017-10-14T08:36:26.549Z,43.02
2017-10-14T08:39:01.843Z,42.73
2017-10-14T08:41:39.158Z,42.80
2017-10-14T08:44:14.386Z,43.92
2017-10-14T08:46:49.066Z,43.10
2017-10-14T08:49:23.958Z,43.57
2017-10-14T08:51:58.657Z,42.19
2017-10-14T08:54:33.805Z,42.33
2017-10-14T08:57:12.851Z,43.06
2017-10-14T08:59:47.555Z,42.76
2017-10-14T09:02:23.305Z,42.89
2017-10-14T09:04:58.105Z,43.65
2017-10-14T09:07:33.324Z,41.94
2017-10-14T09:10:08.440Z,41.72
2017-10-14T09:12:47.075Z,42.75
2017-10-14T09:15:21.995Z,42.22
2017-10-14T09:17:58.564Z,41.66
2017-10-14T09:20:33.935Z,42.31
2017-10-14T09:23:12.266Z,43.45
2017-10-14T09:25:46.901Z,43.08
2017-10-14T09:28:24.720Z,43.92
2017-10-14T09:31:00.064Z,42.15
2017-10-14T09:33:36.630Z,41.61
2017-10-14T09:36:11.084Z,42.53
2017-10-14T09:38:47.938Z,43.24
2017-10-14T09:41:22.967Z,43.49
2017-10-14T09:43:57.902Z,43.40
2017-10-14T09:46:32.878Z,43.00
2017-10-14T09:49:07.828Z,43.79
2017-10-14T09:51:42.561Z,40.09
2017-10-14T09:54:21.418Z,41.09
2017-10-14T09:56:56.693Z,41.61
2017-10-14T09:59:31.427Z,41.22
2017-10-14T10:01:58.204Z,41.56
2017-10-14T10:04:33.570Z,42.62
2017-10-14T10:07:08.781Z,40.94
2017-10-14T10:09:43.886Z,41.83
2017-10-14T10:12:19.091Z,41.74
2017-10-14T10:14:54.461Z,42.37
2017-10-14T10:17:29.414Z,42.45
2017-10-14T10:20:04.165Z,41.17
2017-10-14T10:22:39.255Z,41.86
2017-10-14T10:25:14.042Z,41.55
2017-10-14T10:27:49.570Z,41.08
2017-10-14T10:30:24.491Z,40.35
2017-10-14T10:32:59.691Z,40.47
2017-10-14T10:35:36.877Z,40.29
2017-10-14T10:38:12.311Z,41.00
2017-10-14T10:40:54.499Z,40.13
2017-10-14T10:43:29.384Z,39.98
2017-10-14T10:46:05.079Z,40.04
2017-10-14T10:48:39.725Z,39.73
2017-10-14T10:51:14.246Z,38.67
2017-10-14T10:53:48.914Z,38.74
2017-10-14T10:56:25.987Z,38.62
2017-10-14T10:59:01.783Z,37.39
2017-10-14T11:01:37.030Z,38.62
2017-10-14T11:04:11.804Z,39.93
2017-10-14T11:06:46.677Z,39.14
2017-10-14T11:09:21.390Z,40.42
2017-10-14T11:11:56.637Z,39.67
2017-10-14T11:14:31.304Z,39.70
2017-10-14T11:17:07.345Z,38.78
2017-10-14T11:19:43.080Z,39.72
2017-10-14T11:22:18.863Z,41.07
2017-10-14T11:24:53.337Z,40.06
2017-10-14T11:27:30.659Z,40.05
2017-10-14T11:30:05.684Z,41.21
2017-10-14T11:32:42.067Z,40.85
2017-10-14T11:35:16.957Z,40.80
2017-10-14T11:37:53.472Z,41.15
2017-10-14T11:40:28.472Z,40.85
2017-10-14T11:43:04.895Z,40.80
2017-10-14T11:45:39.840Z,40.89
2017-10-14T11:48:14.756Z,39.96
2017-10-14T11:50:49.328Z,40.24
2017-10-14T11:53:25.130Z,40.09
2017-10-14T11:55:59.686Z,39.17
2017-10-14T11:58:34.656Z,37.82
2017-10-14T12:01:01.386Z,38.24
2017-10-14T12:03:36.031Z,39.10
2017-10-14T12:06:10.701Z,38.88
2017-10-14T12:08:46.204Z,39.34
2017-10-14T12:11:20.759Z,39.55
2017-10-14T12:16:36.385Z,39.76
2017-10-14T12:19:11.358Z,40.20
2017-10-14T12:21:46.884Z,38.50
2017-10-14T12:24:21.444Z,38.91
2017-10-14T12:26:56.211Z,38.11
2017-10-14T12:29:31.933Z,38.66
2017-10-14T12:32:06.988Z,38.37
2017-10-14T12:34:41.750Z,38.00
2017-10-14T12:37:16.889Z,38.77
2017-10-14T12:39:51.921Z,38.66
2017-10-14T12:42:26.510Z,38.99
2017-10-14T12:45:01.928Z,39.54
2017-10-14T12:47:36.747Z,40.14
2017-10-14T12:50:13.003Z,40.20
2017-10-14T12:52:47.987Z,40.79
2017-10-14T12:55:22.659Z,41.62
2017-10-14T12:57:57.236Z,42.37
2017-10-14T13:00:32.963Z,42.84
2017-10-14T13:03:07.853Z,43.58
2017-10-14T13:05:43.558Z,43.38
2017-10-14T13:08:18.357Z,42.93
2017-10-14T13:10:54.836Z,44.39
2017-10-14T13:13:30.017Z,45.63
2017-10-14T13:16:05.609Z,45.56
2017-10-14T13:18:40.982Z,45.16
2017-10-14T13:21:17.335Z,44.17
2017-10-14T13:23:52.291Z,44.55
2017-10-14T13:26:28.227Z,45.25
2017-10-14T13:29:03.128Z,45.68
2017-10-14T13:31:39.099Z,46.02
2017-10-14T13:34:13.922Z,45.80
2017-10-14T13:36:49.231Z,45.87
2017-10-14T13:39:23.883Z,45.89
2017-10-14T13:41:59.100Z,46.74
2017-10-14T13:44:35.874Z,47.08
2017-10-14T13:47:11.448Z,47.50
2017-10-14T13:49:46.029Z,47.75
2017-10-14T13:52:21.070Z,48.45
2017-10-14T13:54:55.882Z,48.53
2017-10-14T13:57:31.408Z,49.28
2017-10-14T14:00:06.160Z,49.25
2017-10-14T14:02:35.424Z,49.44
2017-10-14T14:05:10.835Z,49.61
2017-10-14T14:07:45.494Z,50.37
2017-10-14T14:10:20.097Z,50.63
2017-10-14T14:12:55.944Z,50.32
2017-10-14T14:15:31.161Z,50.10
2017-10-14T14:18:06.856Z,49.98
2017-10-14T14:20:41.641Z,49.21
2017-10-14T14:23:22.372Z,49.49
2017-10-14T14:25:57.372Z,49.29
2017-10-14T14:28:34.576Z,50.21
2017-10-14T14:31:09.181Z,50.57
2017-10-14T14:33:44.740Z,50.68
2017-10-14T14:36:19.621Z,51.22
2017-10-14T14:38:55.400Z,51.98
2017-10-14T14:41:30.045Z,52.44
2017-10-14T14:44:05.597Z,52.45
2017-10-14T14:46:41.751Z,52.68
2017-10-14T14:49:16.507Z,52.35
2017-10-14T14:51:51.884Z,52.70
2017-10-14T14:54:26.831Z,53.38
2017-10-14T14:57:01.621Z,53.21
2017-10-14T14:59:36.380Z,54.03
2017-10-14T15:02:11.245Z,54.63
2017-10-14T15:04:46.143Z,55.12
2017-10-14T15:07:20.903Z,55.21
2017-10-14T15:09:55.783Z,55.08
2017-10-14T15:12:30.371Z,55.59
2017-10-14T15:15:04.980Z,55.67
2017-10-14T15:17:40.219Z,56.16
2017-10-14T15:20:15.783Z,56.56
2017-10-14T15:22:50.384Z,56.65
2017-10-14T15:25:25.092Z,56.71
2017-10-14T15:27:59.895Z,56.12
2017-10-14T15:30:35.716Z,56.11
2017-10-14T15:33:10.539Z,56.76
2017-10-14T15:35:49.446Z,57.02
2017-10-14T15:38:24.708Z,57.68
2017-10-14T15:40:59.675Z,57.78
2017-10-14T15:43:34.276Z,57.99
2017-10-14T15:46:14.559Z,58.30
2017-10-14T15:48:49.757Z,58.51
2017-10-14T15:51:26.266Z,58.79
2017-10-14T15:54:01.267Z,59.15
2017-10-14T15:56:38.988Z,59.31
2017-10-14T15:59:14.269Z,59.64
2017-10-14T16:01:41.080Z,60.05
2017-10-14T16:04:16.083Z,60.29
2017-10-14T16:06:51.359Z,59.97
2017-10-14T16:09:27.400Z,59.77
2017-10-14T16:12:02.115Z,60.34
2017-10-14T16:14:37.381Z,60.46
2017-10-14T16:17:15.504Z,60.84
2017-10-14T16:19:50.927Z,60.99
2017-10-14T16:22:26.580Z,61.28
2017-10-14T16:25:01.145Z,61.03
2017-10-14T16:27:35.982Z,61.25
2017-10-14T16:30:11.168Z,61.57
2017-10-14T16:32:46.808Z,62.03
2017-10-14T16:35:22.215Z,62.61
2017-10-14T16:37:56.899Z,63.13
2017-10-14T16:40:31.553Z,63.50
2017-10-14T16:43:08.877Z,63.68
2017-10-14T16:45:43.877Z,63.74
2017-10-14T16:48:22.033Z,63.57
2017-10-14T16:50:57.376Z,63.72
2017-10-14T16:53:32.818Z,63.74
2017-10-14T16:56:07.847Z,62.58
2017-10-14T16:58:45.961Z,63.11
2017-10-14T17:01:20.462Z,63.44
2017-10-14T17:03:56.355Z,63.25
2017-10-14T17:06:31.272Z,63.55
2017-10-14T17:09:06.239Z,63.45
2017-10-14T17:11:40.960Z,63.49
2017-10-14T17:14:16.810Z,63.74
2017-10-14T17:16:51.460Z,63.49
2017-10-14T17:19:27.303Z,63.15
2017-10-14T17:22:01.932Z,62.77
2017-10-14T17:24:36.560Z,63.03
2017-10-14T17:27:11.093Z,63.32
2017-10-14T17:29:45.924Z,63.25
2017-10-14T17:32:20.460Z,63.48
2017-10-14T17:34:55.045Z,63.41
2017-10-14T17:37:29.965Z,63.14
2017-10-14T17:40:04.776Z,62.97
2017-10-14T17:42:39.756Z,63.59
2017-10-14T17:45:15.439Z,62.76
2017-10-14T17:47:50.168Z,62.82
2017-10-14T17:50:24.954Z,62.71
2017-10-14T17:52:59.748Z,62.69
2017-10-14T17:55:34.265Z,62.75
2017-10-14T17:58:09.181Z,63.93
2017-10-14T18:00:53.044Z,64.32
2017-10-14T18:03:27.594Z,64.51
2017-10-14T18:06:02.405Z,64.51
2017-10-14T18:08:36.819Z,64.29
2017-10-14T18:11:13.303Z,63.94
2017-10-14T18:13:48.326Z,63.96
2017-10-14T18:16:24.741Z,63.96
2017-10-14T18:18:59.928Z,62.78
2017-10-14T18:21:41.127Z,62.21
2017-10-14T18:24:16.361Z,62.45
2017-10-14T18:26:52.923Z,62.94
2017-10-14T18:29:28.050Z,63.16
2017-10-14T18:32:03.736Z,63.70
2017-10-14T18:34:38.392Z,64.05
2017-10-14T18:39:53.771Z,64.37
2017-10-14T18:45:34.477Z,64.96
2017-10-14T18:48:09.151Z,65.18
2017-10-14T18:50:46.481Z,65.64
2017-10-14T18:53:22.808Z,65.57
2017-10-14T18:55:57.421Z,65.71
2017-10-14T18:58:32.233Z,66.05
2017-10-14T19:01:12.503Z,66.08
2017-10-14T19:03:49.112Z,66.43
2017-10-14T19:06:25.750Z,66.25
2017-10-14T19:09:01.033Z,66.30
2017-10-14T19:11:38.723Z,66.24
2017-10-14T19:14:16.399Z,66.36
2017-10-14T19:16:52.145Z,65.79
2017-10-14T19:19:29.329Z,65.98
2017-10-14T19:22:04.009Z,66.08
2017-10-14T19:24:39.548Z,66.21
2017-10-14T19:27:15.577Z,66.19
2017-10-14T19:29:50.427Z,66.24
2017-10-14T19:32:25.589Z,66.11
2017-10-14T19:35:02.813Z,65.77
2017-10-14T19:37:37.327Z,66.20
2017-10-14T19:40:16.404Z,65.89
2017-10-14T19:42:51.531Z,65.86
2017-10-14T19:45:27.080Z,66.01
2017-10-14T19:48:03.638Z,65.68
2017-10-14T19:50:42.773Z,65.74
2017-10-14T19:53:17.419Z,66.04
2017-10-14T19:55:52.051Z,66.06
2017-10-14T19:58:27.348Z,65.73
2017-10-14T20:00:54.122Z,65.54
2017-10-14T20:03:29.172Z,65.14
2017-10-14T20:06:09.067Z,64.77
2017-10-14T20:08:44.242Z,64.48
2017-10-14T20:11:19.730Z,64.37
2017-10-14T20:13:54.295Z,64.01
2017-10-14T20:16:31.813Z,63.84
2017-10-14T20:19:06.429Z,63.71
2017-10-14T20:21:41.171Z,63.39
2017-10-14T20:24:16.466Z,62.94
2017-10-14T20:26:51.016Z,62.30
2017-10-14T20:29:25.727Z,61.92
2017-10-14T20:32:00.740Z,61.30
2017-10-14T20:34:35.828Z,61.15
2017-10-14T20:37:11.306Z,61.14
2017-10-14T20:39:45.964Z,60.90
2017-10-14T20:42:21.601Z,60.75
2017-10-14T20:44:56.875Z,60.60
2017-10-14T20:47:32.389Z,60.53
2017-10-14T20:50:06.952Z,60.61
2017-10-14T20:52:41.727Z,60.69
2017-10-14T20:55:16.913Z,60.84
2017-10-14T20:57:51.589Z,59.93
2017-10-14T21:00:27.027Z,59.60
2017-10-14T21:03:05.095Z,59.16
2017-10-14T21:05:39.743Z,58.71
2017-10-14T21:08:16.075Z,58.08
2017-10-14T21:10:51.094Z,57.68
2017-10-14T21:13:26.443Z,57.69
2017-10-14T21:16:01.940Z,58.33
2017-10-14T21:18:37.320Z,58.63
2017-10-14T21:21:11.760Z,58.74
2017-10-14T21:23:46.338Z,59.55
2017-10-14T21:26:21.982Z,59.92
2017-10-14T21:28:58.390Z,59.90
2017-10-14T21:31:33.402Z,59.59
2017-10-14T21:34:08.092Z,58.84
2017-10-14T21:36:43.583Z,58.80
2017-10-14T21:39:20.068Z,58.72
2017-10-14T21:41:55.627Z,58.05
2017-10-14T21:44:32.080Z,56.81
2017-10-14T21:47:06.728Z,56.02
2017-10-14T21:49:48.361Z,54.84
2017-10-14T21:52:23.071Z,54.37
2017-10-14T21:55:00.132Z,54.18
2017-10-14T21:57:35.097Z,53.58
2017-10-14T22:00:10.591Z,53.21
2017-10-14T22:02:37.292Z,52.60
2017-10-14T22:05:12.292Z,52.55
2017-10-14T22:07:46.808Z,52.13
2017-10-14T22:10:22.397Z,51.80
2017-10-14T22:12:56.897Z,51.50
2017-10-14T22:15:32.331Z,51.03
2017-10-14T22:18:06.827Z,50.85
2017-10-14T22:20:42.255Z,50.66
2017-10-14T22:23:17.576Z,50.76
2017-10-14T22:25:53.922Z,50.40
2017-10-14T22:28:29.055Z,50.50
2017-10-14T22:31:03.690Z,50.58
2017-10-14T22:33:39.115Z,50.53
2017-10-14T22:36:14.095Z,50.47
2017-10-14T22:38:48.599Z,50.58
2017-10-14T22:41:26.033Z,50.70
2017-10-14T22:44:00.538Z,50.61
2017-10-14T22:46:35.134Z,50.60
2017-10-14T22:49:09.746Z,50.55
2017-10-14T22:51:45.451Z,50.63
2017-10-14T22:54:20.128Z,50.82
2017-10-14T22:56:57.340Z,50.71
2017-10-14T22:59:32.454Z,50.72
2017-10-14T23:02:08.692Z,50.95
2017-10-14T23:04:44.179Z,51.34
2017-10-14T23:07:18.870Z,52.32
2017-10-14T23:09:53.328Z,53.28
2017-10-14T23:12:27.937Z,53.44
2017-10-14T23:15:02.494Z,53.34
2017-10-14T23:17:38.178Z,53.00
2017-10-14T23:20:13.533Z,52.93
2017-10-14T23:22:48.406Z,53.04
2017-10-14T23:25:23.776Z,53.57
2017-10-14T23:27:58.683Z,53.72
2017-10-14T23:30:33.783Z,53.60
2017-10-14T23:33:08.691Z,53.65
2017-10-14T23:35:43.761Z,53.78
2017-10-14T23:38:19.941Z,53.65
2017-10-14T23:40:54.746Z,53.59
2017-10-14T23:43:33.497Z,53.50
2017-10-14T23:46:08.042Z,53.45
2017-10-14T23:48:43.983Z,53.54
2017-10-14T23:51:18.695Z,53.55
2017-10-14T23:53:54.381Z,53.58
2017-10-14T23:56:29.020Z,53.57
2017-10-14T23:59:03.890Z,53.61
